»·PEaware :: N122WM L88-KSBP

N122WM :: L88-KSBP

FLIGHT INFORMATION

Flight Status: Arrived
Operator: Privately registered:
United States
More flights under this callsign
Pilot: Chad H. (22814)
Aircraft: CESSNA 172 SKYHAWK
(C172)
More flights by this aircraft type
Origin: L88 New Cuyama
United States
Destination: KSBP San Luis Co Regl
United States
More flights between these airports :: More routes between these airports
Route:
File this flight plan on PilotEdge
Remarks: CAT-2
Altitude:
(Current/Filed)
5,000ft
Speed:
(Current/Filed)
115kts
Departed: 04-Jan-19 11:10 AM
Arrived: 04-Jan-19 11:38 AM
Distance/Time
Traveled:
50nm/0:28
Distance/Time
To Go:
Arrived

Flight Plot

Page will automatically refresh every two minutes.


Map Options




Map Legend


Flown Route
Filed Route
Departure Airport
Arrival Airport
Navaid (VOR, NDB)
Fix

Horizontal Profiles

Position Reports

Time Latitude Longitude Heading Altitude Ground
Speed
04-Jan-19 11:02 34.942856 -119.690285 204 2156ft 0kts
04-Jan-19 11:03 34.942856 -119.690285 204 2156ft 0kts
04-Jan-19 11:04 34.942856 -119.690285 204 2156ft 0kts
04-Jan-19 11:06 34.942856 -119.690285 204 2156ft 0kts
04-Jan-19 11:06 34.942856 -119.690285 204 2156ft 0kts
04-Jan-19 11:07 34.942856 -119.690285 204 2156ft 0kts
04-Jan-19 11:08 34.942191 -119.691040 121 2156ft 0kts
04-Jan-19 11:09 34.927744 -119.679675 208 2564ft 105kts
04-Jan-19 11:10 34.935396 -119.709356 314 3088ft 115kts
04-Jan-19 11:11 34.952270 -119.742995 293 3587ft 118kts
04-Jan-19 11:12 34.961291 -119.781568 287 4086ft 117kts
04-Jan-19 11:13 34.970571 -119.819673 287 4585ft 116kts
04-Jan-19 11:14 34.979659 -119.857177 287 5083ft 114kts
04-Jan-19 11:15 34.988853 -119.895135 287 5325ft 119kts
04-Jan-19 11:16 34.997429 -119.933376 287 5325ft 115kts
04-Jan-19 11:17 35.006506 -119.970757 287 5325ft 115kts
04-Jan-19 11:18 35.015538 -120.008073 287 5323ft 114kts
04-Jan-19 11:19 35.024855 -120.046562 287 4991ft 123kts
04-Jan-19 11:20 35.035052 -120.088729 287 4438ft 133kts
04-Jan-19 11:21 35.045150 -120.130682 287 3835ft 127kts
04-Jan-19 11:22 35.055139 -120.172251 286 3234ft 127kts
04-Jan-19 11:23 35.064268 -120.210365 286 3134ft 112kts
04-Jan-19 11:24 35.073528 -120.249046 286 3136ft 121kts
04-Jan-19 11:25 35.082986 -120.288594 286 3135ft 121kts
04-Jan-19 11:26 35.092491 -120.328389 286 3134ft 121kts
04-Jan-19 11:27 35.101782 -120.367349 286 3133ft 121kts
04-Jan-19 11:28 35.111028 -120.406161 287 3130ft 111kts
04-Jan-19 11:29 35.120039 -120.440664 302 3131ft 105kts
04-Jan-19 11:30 35.136917 -120.469861 308 3130ft 105kts
04-Jan-19 11:31 35.153771 -120.497470 308 3126ft 92kts
04-Jan-19 11:32 35.169387 -120.522953 308 2761ft 101kts
04-Jan-19 11:33 35.185451 -120.550054 305 2120ft 90kts
04-Jan-19 11:34 35.198948 -120.573703 305 1588ft 80kts
04-Jan-19 11:35 35.211128 -120.595047 305 1123ft 74kts
04-Jan-19 11:36 35.224734 -120.618889 305 597ft 87kts
04-Jan-19 11:37 35.235579 -120.637836 306 216ft 39kts
04-Jan-19 11:38 35.237453 -120.639930 8 216ft 0kts
04-Jan-19 11:39 35.237453 -120.639930 8 216ft 0kts
04-Jan-19 11:40 35.237453 -120.639930 8 216ft 0kts
04-Jan-19 11:41 35.238633 -120.639725 309 216ft 0kts
04-Jan-19 11:42 35.238633 -120.639725 309 216ft 0kts
04-Jan-19 11:43 35.238633 -120.639725 309 216ft 0kts
04-Jan-19 11:44 35.238403 -120.639824 311 216ft 0kts
04-Jan-19 11:45 35.238403 -120.639824 311 216ft 0kts
04-Jan-19 11:46 35.238403 -120.639824 311 216ft 0kts
04-Jan-19 11:47 35.238403 -120.639824 311 216ft 0kts
04-Jan-19 11:48 35.238403 -120.639824 311 216ft 0kts
04-Jan-19 11:49 35.238403 -120.639824 311 216ft 0kts
04-Jan-19 11:50 35.238403 -120.639824 311 216ft 0kts
04-Jan-19 11:51 35.238403 -120.639824 311 216ft 0kts

Navigation Log

Ident Type
Flight plan parsing failed, navigation log unavailable